Time;durP1;ratioP1;P1;durP2;ratioP2;P2;SDS_P1;SDS_P2;PMS_P1;PMS_P2;Temp;Humidity;BMP_temperature;BMP_pressure;BME280_temperature;BME280_humidity;BME280_pressure;Samples;Min_cycle;Max_cycle;Signal;HPM_P1;HPM_P2
2023/09/02 00:01:11;;;;;;;6.27;5.67;;;;;;;;;;5053705;28;20441;-76
2023/09/02 00:03:38;;;;;;;7.40;5.50;;;;;;;;;;5053520;28;20840;-76
2023/09/02 00:06:05;;;;;;;6.50;5.20;;;;;;;;;;5053381;28;20495;-76
2023/09/02 00:08:34;;;;;;;12.33;5.67;;;;;;;;;;5053335;28;20467;-77
2023/09/02 00:11:01;;;;;;;5.90;5.20;;;;;;;;;;5053654;28;20448;-76
2023/09/02 00:13:28;;;;;;;5.73;5.00;;;;;;;;;;5053564;28;20564;-76
2023/09/02 00:15:56;;;;;;;9.83;6.43;;;;;;;;;;5053195;28;20449;-76
2023/09/02 00:18:23;;;;;;;6.80;5.83;;;;;;;;;;5053288;28;20503;-76
2023/09/02 00:20:50;;;;;;;7.30;6.00;;;;;;;;;;5053299;28;20460;-76
2023/09/02 00:23:17;;;;;;;8.30;5.93;;;;;;;;;;5053322;28;20465;-76
2023/09/02 00:25:46;;;;;;;9.27;5.63;;;;;;;;;;5053017;28;20529;-77
2023/09/02 00:28:13;;;;;;;6.00;4.83;;;;;;;;;;5052982;28;20449;-76
2023/09/02 00:30:40;;;;;;;9.47;5.47;;;;;;;;;;5053120;28;20457;-76
2023/09/02 00:33:07;;;;;;;7.80;6.00;;;;;;;;;;5053010;28;20457;-76
2023/09/02 00:35:34;;;;;;;6.07;5.17;;;;;;;;;;5053171;28;20451;-76
2023/09/02 00:38:01;;;;;;;7.20;4.20;;;;;;;;;;5052784;28;20460;-76
2023/09/02 00:40:29;;;;;;;6.20;5.17;;;;;;;;;;5053359;28;20448;-76
2023/09/02 00:42:58;;;;;;;7.33;5.73;;;;;;;;;;5052963;28;20837;-76
2023/09/02 00:45:26;;;;;;;5.70;4.87;;;;;;;;;;5052822;28;20491;-76
2023/09/02 00:47:53;;;;;;;4.60;4.13;;;;;;;;;;5052811;28;20829;-76
2023/09/02 00:50:21;;;;;;;5.80;4.70;;;;;;;;;;5053185;28;20472;-76
2023/09/02 00:52:49;;;;;;;6.13;5.37;;;;;;;;;;5052818;28;20464;-76
2023/09/02 00:55:16;;;;;;;5.80;4.67;;;;;;;;;;5052866;28;20456;-76
2023/09/02 00:57:44;;;;;;;6.80;4.70;;;;;;;;;;5052782;28;20718;-76
2023/09/02 01:00:13;;;;;;;7.13;5.40;;;;;;;;;;5052923;28;20944;-76
2023/09/02 01:02:40;;;;;;;5.30;4.77;;;;;;;;;;5053466;28;20476;-76
2023/09/02 01:05:08;;;;;;;8.00;4.43;;;;;;;;;;5056836;28;20826;-77
2023/09/02 01:07:35;;;;;;;10.43;5.03;;;;;;;;;;5056815;28;20467;-77
2023/09/02 01:10:03;;;;;;;5.30;4.80;;;;;;;;;;5056818;28;20474;-76
2023/09/02 01:12:31;;;;;;;12.10;4.50;;;;;;;;;;5057011;28;20470;-77
2023/09/02 01:14:58;;;;;;;4.90;4.40;;;;;;;;;;5056885;28;20455;-77
2023/09/02 01:17:27;;;;;;;5.93;5.30;;;;;;;;;;5056477;28;20453;-76
2023/09/02 01:19:57;;;;;;;7.03;5.30;;;;;;;;;;5056774;28;20449;-77
2023/09/02 01:22:42;;;;;;;6.40;4.70;;;;;;;;;;5056491;28;20473;-77
2023/09/02 01:25:13;;;;;;;5.53;4.43;;;;;;;;;;5056675;28;21054;-78
2023/09/02 01:27:44;;;;;;;5.00;4.50;;;;;;;;;;5056651;28;20956;-77
2023/09/02 01:30:16;;;;;;;6.50;4.50;;;;;;;;;;5056026;28;20452;-77
2023/09/02 01:32:44;;;;;;;8.13;5.07;;;;;;;;;;5056401;28;20476;-77
2023/09/02 01:35:14;;;;;;;5.40;4.90;;;;;;;;;;5056352;28;20449;-77
2023/09/02 01:37:43;;;;;;;7.67;5.83;;;;;;;;;;5056137;28;20453;-77
2023/09/02 01:40:12;;;;;;;5.93;5.27;;;;;;;;;;5056350;28;20452;-77
2023/09/02 01:42:40;;;;;;;4.97;4.47;;;;;;;;;;5056333;28;20900;-76
2023/09/02 01:45:10;;;;;;;10.13;5.53;;;;;;;;;;5056157;28;20495;-76
2023/09/02 01:47:38;;;;;;;6.53;4.30;;;;;;;;;;5055906;28;20475;-76
2023/09/02 01:50:06;;;;;;;6.47;4.40;;;;;;;;;;5056128;28;20452;-76
2023/09/02 01:52:33;;;;;;;6.73;4.50;;;;;;;;;;5056070;28;20467;-76
2023/09/02 01:55:01;;;;;;;5.23;4.53;;;;;;;;;;5056053;28;20805;-77
2023/09/02 01:57:28;;;;;;;5.00;4.00;;;;;;;;;;5055849;28;20448;-77
2023/09/02 01:59:55;;;;;;;6.13;4.83;;;;;;;;;;5055983;28;20448;-76
2023/09/02 02:02:24;;;;;;;4.87;3.30;;;;;;;;;;5055890;28;20969;-76
2023/09/02 02:04:53;;;;;;;7.33;3.90;;;;;;;;;;5055705;28;20489;-76
2023/09/02 02:07:22;;;;;;;4.20;3.30;;;;;;;;;;5055469;28;20459;-76
2023/09/02 02:09:50;;;;;;;4.37;3.97;;;;;;;;;;5055708;28;20448;-77
2023/09/02 02:12:18;;;;;;;3.83;3.47;;;;;;;;;;5055675;28;20479;-76
2023/09/02 02:14:46;;;;;;;4.23;3.50;;;;;;;;;;5055174;28;20449;-77
2023/09/02 02:17:13;;;;;;;6.57;3.80;;;;;;;;;;5055463;28;20445;-76
2023/09/02 02:19:42;;;;;;;5.17;3.50;;;;;;;;;;5055552;28;20784;-76
2023/09/02 02:22:09;;;;;;;4.07;3.50;;;;;;;;;;5055662;28;20484;-77
2023/09/02 02:24:37;;;;;;;4.47;3.77;;;;;;;;;;5055606;28;20813;-76
2023/09/02 02:27:04;;;;;;;4.60;3.67;;;;;;;;;;5055137;28;20453;-76
2023/09/02 02:29:31;;;;;;;4.70;4.20;;;;;;;;;;5054972;28;20448;-77
2023/09/02 02:31:58;;;;;;;3.80;3.40;;;;;;;;;;5055381;28;20448;-76
2023/09/02 02:34:25;;;;;;;6.63;3.57;;;;;;;;;;5055244;28;20446;-76
2023/09/02 02:36:54;;;;;;;4.97;3.90;;;;;;;;;;5055103;28;20457;-78
2023/09/02 02:39:21;;;;;;;5.37;3.60;;;;;;;;;;5055344;28;20457;-76
2023/09/02 02:41:48;;;;;;;4.33;3.27;;;;;;;;;;5055099;28;20448;-76
2023/09/02 02:44:15;;;;;;;4.80;4.40;;;;;;;;;;5055143;28;20448;-76
2023/09/02 02:46:43;;;;;;;4.80;3.93;;;;;;;;;;5055022;28;20579;-77
2023/09/02 02:49:11;;;;;;;5.93;3.87;;;;;;;;;;5054891;28;20795;-76
2023/09/02 02:51:38;;;;;;;6.40;5.10;;;;;;;;;;5055239;28;20465;-76
2023/09/02 02:54:07;;;;;;;3.90;3.50;;;;;;;;;;5054692;28;20476;-76
2023/09/02 02:56:34;;;;;;;4.50;4.10;;;;;;;;;;5054905;28;20444;-76
2023/09/02 02:59:01;;;;;;;5.00;3.70;;;;;;;;;;5054625;28;20456;-76
2023/09/02 03:01:30;;;;;;;5.60;4.30;;;;;;;;;;5054818;28;20445;-77
2023/09/02 03:03:57;;;;;;;7.20;5.97;;;;;;;;;;5054807;28;20468;-76
2023/09/02 03:06:24;;;;;;;5.00;4.43;;;;;;;;;;5054651;28;20485;-75
2023/09/02 03:08:51;;;;;;;4.60;4.17;;;;;;;;;;5054398;28;20460;-76
2023/09/02 03:11:19;;;;;;;5.67;4.90;;;;;;;;;;5054915;28;20468;-76
2023/09/02 03:13:46;;;;;;;5.30;4.30;;;;;;;;;;5054279;28;20469;-76
2023/09/02 03:16:14;;;;;;;6.73;4.90;;;;;;;;;;5054503;28;20549;-76
2023/09/02 03:18:41;;;;;;;8.80;4.37;;;;;;;;;;5054312;28;20456;-77
2023/09/02 03:21:09;;;;;;;12.13;4.60;;;;;;;;;;5054433;28;20799;-76
2023/09/02 03:23:36;;;;;;;8.90;5.63;;;;;;;;;;5054338;28;21052;-76
2023/09/02 03:26:10;;;;;;;4.60;4.10;;;;;;;;;;5053304;28;20523;-77
2023/09/02 03:28:38;;;;;;;7.00;4.50;;;;;;;;;;5054001;28;20457;-77
2023/09/02 03:31:07;;;;;;;5.20;4.73;;;;;;;;;;5053558;28;20452;-77
2023/09/02 03:33:34;;;;;;;6.67;4.90;;;;;;;;;;5054122;28;20473;-76
2023/09/02 03:36:01;;;;;;;7.00;5.17;;;;;;;;;;5054287;28;20448;-76
2023/09/02 03:38:29;;;;;;;6.27;5.70;;;;;;;;;;5054142;28;20445;-76
2023/09/02 03:40:56;;;;;;;6.10;5.47;;;;;;;;;;5053916;28;20448;-76
2023/09/02 03:43:23;;;;;;;7.67;5.90;;;;;;;;;;5053960;28;20464;-76
2023/09/02 03:45:51;;;;;;;9.27;6.80;;;;;;;;;;5053750;28;20492;-77
2023/09/02 03:48:19;;;;;;;7.33;5.70;;;;;;;;;;5053628;28;20457;-76
2023/09/02 03:51:03;;;;;;;6.87;5.80;;;;;;;;;;5054074;28;20453;-76
2023/09/02 03:53:30;;;;;;;7.37;6.63;;;;;;;;;;5053795;28;20504;-76
2023/09/02 03:55:57;;;;;;;7.70;5.90;;;;;;;;;;5053625;28;20447;-76
2023/09/02 03:58:24;;;;;;;5.67;5.17;;;;;;;;;;5053852;28;20938;-76
2023/09/02 04:00:53;;;;;;;5.87;5.33;;;;;;;;;;5053734;28;20449;-76
2023/09/02 04:03:21;;;;;;;5.20;4.70;;;;;;;;;;5053585;28;20969;-76
2023/09/02 04:05:48;;;;;;;11.40;5.57;;;;;;;;;;5053525;28;20516;-76
2023/09/02 04:08:16;;;;;;;4.70;4.20;;;;;;;;;;5053330;28;20813;-76
2023/09/02 04:10:44;;;;;;;5.40;4.90;;;;;;;;;;5053631;28;20450;-76
2023/09/02 04:13:11;;;;;;;6.80;5.27;;;;;;;;;;5053515;28;20848;-76
2023/09/02 04:15:38;;;;;;;7.43;5.43;;;;;;;;;;5053806;28;20445;-76
2023/09/02 04:18:06;;;;;;;6.07;4.30;;;;;;;;;;5053304;28;20449;-76
2023/09/02 04:20:36;;;;;;;4.80;4.30;;;;;;;;;;5053298;28;20480;-76
2023/09/02 04:23:03;;;;;;;5.13;4.40;;;;;;;;;;5052849;28;20814;-76
2023/09/02 04:25:30;;;;;;;4.13;3.60;;;;;;;;;;5052874;28;20979;-76
2023/09/02 04:27:57;;;;;;;6.23;4.30;;;;;;;;;;5053046;28;20451;-76
2023/09/02 04:30:25;;;;;;;3.73;3.43;;;;;;;;;;5052618;28;20464;-76
2023/09/02 04:32:52;;;;;;;6.27;5.03;;;;;;;;;;5052133;28;20969;-76
2023/09/02 04:35:21;;;;;;;4.47;3.90;;;;;;;;;;5052373;28;20449;-76
2023/09/02 04:37:48;;;;;;;5.50;4.53;;;;;;;;;;5051650;28;20941;-77
2023/09/02 04:40:15;;;;;;;4.23;3.83;;;;;;;;;;5052111;28;20449;-76
2023/09/02 04:42:42;;;;;;;8.60;6.17;;;;;;;;;;5052058;28;20500;-76
2023/09/02 04:45:10;;;;;;;5.83;4.50;;;;;;;;;;5051683;28;20465;-76
2023/09/02 04:47:38;;;;;;;7.50;3.97;;;;;;;;;;5051613;28;20499;-76
2023/09/02 04:50:05;;;;;;;4.40;4.00;;;;;;;;;;5051750;28;20452;-76
2023/09/02 04:52:34;;;;;;;3.83;3.03;;;;;;;;;;5052024;28;20481;-76
2023/09/02 04:55:01;;;;;;;4.33;3.90;;;;;;;;;;5051735;28;20507;-76
2023/09/02 04:57:28;;;;;;;6.43;5.27;;;;;;;;;;5051554;28;20909;-76
2023/09/02 04:59:55;;;;;;;7.03;4.97;;;;;;;;;;5051913;28;20455;-76
2023/09/02 05:02:25;;;;;;;4.37;3.97;;;;;;;;;;5051823;28;20464;-76
2023/09/02 05:04:52;;;;;;;5.93;5.10;;;;;;;;;;5051893;28;20471;-76
2023/09/02 05:07:19;;;;;;;7.70;4.53;;;;;;;;;;5051494;28;20864;-76
2023/09/02 05:09:48;;;;;;;3.80;2.80;;;;;;;;;;5051756;28;20457;-77
2023/09/02 05:12:15;;;;;;;3.40;2.77;;;;;;;;;;5051775;28;21011;-76
2023/09/02 05:14:42;;;;;;;3.17;2.87;;;;;;;;;;5052031;28;20455;-77
2023/09/02 05:17:09;;;;;;;3.77;2.93;;;;;;;;;;5051315;28;20447;-77
2023/09/02 05:19:36;;;;;;;3.20;2.60;;;;;;;;;;5060633;28;20455;-76
2023/09/02 05:22:03;;;;;;;3.23;2.93;;;;;;;;;;5071649;28;20447;-76
2023/09/02 05:24:32;;;;;;;2.93;2.67;;;;;;;;;;5071569;28;20931;-76
2023/09/02 05:27:00;;;;;;;3.57;2.40;;;;;;;;;;5055259;28;20571;-76
2023/09/02 05:29:27;;;;;;;2.43;2.03;;;;;;;;;;5071270;28;20817;-76
2023/09/02 05:31:54;;;;;;;3.40;2.60;;;;;;;;;;5071348;28;20440;-76
2023/09/02 05:34:22;;;;;;;2.57;2.37;;;;;;;;;;5071226;28;20448;-77
2023/09/02 05:36:49;;;;;;;8.80;7.00;;;;;;;;;;5071938;28;20511;-77
2023/09/02 05:39:16;;;;;;;5.10;4.53;;;;;;;;;;5071242;28;20562;-76
2023/09/02 05:41:45;;;;;;;3.80;2.83;;;;;;;;;;5071439;28;20444;-76
2023/09/02 05:44:14;;;;;;;2.87;2.57;;;;;;;;;;5071378;28;20806;-76
2023/09/02 05:46:42;;;;;;;3.07;2.50;;;;;;;;;;5071301;28;20995;-77
2023/09/02 05:49:09;;;;;;;4.07;2.60;;;;;;;;;;5072441;28;20465;-76
2023/09/02 05:51:36;;;;;;;2.60;2.40;;;;;;;;;;5075044;28;20948;-76
2023/09/02 05:54:03;;;;;;;2.53;2.33;;;;;;;;;;5074798;28;20475;-76
2023/09/02 05:56:31;;;;;;;7.13;4.57;;;;;;;;;;5074846;28;20439;-77
2023/09/02 05:58:59;;;;;;;3.97;2.90;;;;;;;;;;5074544;28;20459;-76
2023/09/02 06:01:27;;;;;;;3.80;2.50;;;;;;;;;;5074861;28;20460;-76
2023/09/02 06:03:54;;;;;;;2.30;2.10;;;;;;;;;;5074543;28;20524;-76
2023/09/02 06:06:21;;;;;;;2.27;1.80;;;;;;;;;;5074695;28;20487;-76
2023/09/02 06:08:49;;;;;;;3.10;2.50;;;;;;;;;;5074393;28;20558;-76
2023/09/02 06:11:16;;;;;;;5.53;2.20;;;;;;;;;;5074686;28;20448;-77
2023/09/02 06:13:44;;;;;;;4.27;2.47;;;;;;;;;;5074378;28;20474;-76
2023/09/02 06:16:11;;;;;;;2.93;2.10;;;;;;;;;;5074637;28;20633;-76
2023/09/02 06:18:39;;;;;;;3.10;2.03;;;;;;;;;;5074612;28;20453;-76
2023/09/02 06:21:10;;;;;;;3.93;2.67;;;;;;;;;;5074405;28;20455;-76
2023/09/02 06:23:37;;;;;;;2.30;2.03;;;;;;;;;;5074332;28;20529;-76
2023/09/02 06:26:05;;;;;;;4.13;2.30;;;;;;;;;;5073979;28;20450;-76
2023/09/02 06:28:33;;;;;;;2.70;2.50;;;;;;;;;;5074397;28;20943;-76
2023/09/02 06:31:00;;;;;;;4.43;3.67;;;;;;;;;;5073935;28;20512;-77
2023/09/02 06:33:27;;;;;;;2.53;2.33;;;;;;;;;;5074567;28;20785;-76
2023/09/02 06:35:56;;;;;;;2.90;2.20;;;;;;;;;;5074102;28;20446;-76
2023/09/02 06:38:23;;;;;;;3.07;1.90;;;;;;;;;;5074487;28;20447;-77
2023/09/02 06:40:50;;;;;;;4.17;2.60;;;;;;;;;;5074154;28;20461;-76
2023/09/02 06:43:17;;;;;;;2.30;2.10;;;;;;;;;;5074204;28;20470;-76
2023/09/02 06:45:46;;;;;;;3.47;2.00;;;;;;;;;;5074155;28;20212;-76
2023/09/02 06:48:13;;;;;;;2.33;1.90;;;;;;;;;;5073651;28;20264;-76
2023/09/02 06:50:40;;;;;;;2.77;2.57;;;;;;;;;;5073961;28;20446;-76
2023/09/02 06:53:09;;;;;;;2.63;2.10;;;;;;;;;;5073700;28;20229;-76
2023/09/02 06:55:38;;;;;;;2.20;2.00;;;;;;;;;;5073886;28;20216;-75
2023/09/02 06:58:05;;;;;;;2.47;1.80;;;;;;;;;;5073589;28;20295;-75
2023/09/02 07:00:32;;;;;;;3.33;3.03;;;;;;;;;;5073913;28;20215;-74
2023/09/02 07:02:59;;;;;;;5.60;2.20;;;;;;;;;;5073675;28;20229;-75
2023/09/02 07:05:26;;;;;;;1.83;1.60;;;;;;;;;;5073526;28;20209;-75
2023/09/02 07:07:53;;;;;;;2.50;2.00;;;;;;;;;;5071421;28;20225;-75
2023/09/02 07:10:22;;;;;;;3.97;1.93;;;;;;;;;;5071019;28;20217;-76
2023/09/02 07:12:52;;;;;;;3.00;1.93;;;;;;;;;;5071880;28;20229;-76
2023/09/02 07:15:19;;;;;;;2.47;2.27;;;;;;;;;;5072453;28;20311;-76
2023/09/02 07:17:47;;;;;;;2.70;1.83;;;;;;;;;;5071482;28;20718;-76
2023/09/02 07:20:14;;;;;;;7.10;4.13;;;;;;;;;;5071745;28;20212;-76
2023/09/02 07:22:41;;;;;;;2.72;1.88;;;;;;;;;;5071471;28;20232;-76
2023/09/02 07:25:09;;;;;;;2.47;2.23;;;;;;;;;;5071376;28;20270;-75
2023/09/02 07:27:37;;;;;;;2.40;1.87;;;;;;;;;;5071734;28;20700;-75
2023/09/02 07:30:05;;;;;;;3.45;3.15;;;;;;;;;;5071565;28;20724;-75
2023/09/02 07:32:32;;;;;;;3.33;3.03;;;;;;;;;;5071494;28;20241;-75
2023/09/02 07:34:59;;;;;;;3.40;2.77;;;;;;;;;;5071275;28;20209;-76
2023/09/02 07:37:26;;;;;;;2.77;2.00;;;;;;;;;;5071583;28;20733;-76
2023/09/02 07:39:54;;;;;;;3.00;2.07;;;;;;;;;;5071114;28;20204;-75
2023/09/02 07:42:22;;;;;;;5.57;1.90;;;;;;;;;;5070996;28;20994;-76
2023/09/02 07:44:50;;;;;;;4.37;1.90;;;;;;;;;;5070910;28;20454;-76
2023/09/02 07:47:17;;;;;;;2.07;1.80;;;;;;;;;;5071074;28;20495;-75
2023/09/02 07:49:44;;;;;;;2.70;2.10;;;;;;;;;;5071454;28;20458;-77
2023/09/02 07:52:12;;;;;;;2.47;2.00;;;;;;;;;;5071342;28;20968;-75
2023/09/02 07:54:39;;;;;;;3.10;1.83;;;;;;;;;;5071639;28;20521;-76
2023/09/02 07:57:06;;;;;;;3.90;1.70;;;;;;;;;;5070787;28;21194;-76
2023/09/02 07:59:34;;;;;;;3.00;1.83;;;;;;;;;;5071911;28;21126;-77
2023/09/02 08:02:02;;;;;;;2.20;1.80;;;;;;;;;;5051115;28;20464;-77
2023/09/02 08:04:30;;;;;;;2.20;1.93;;;;;;;;;;5051525;28;20855;-77
2023/09/02 08:06:57;;;;;;;2.27;2.07;;;;;;;;;;5050546;28;20488;-77
2023/09/02 08:09:24;;;;;;;3.17;2.17;;;;;;;;;;5052774;28;20453;-77
2023/09/02 08:11:51;;;;;;;1.93;1.67;;;;;;;;;;5051922;28;20449;-77
2023/09/02 08:14:18;;;;;;;2.77;1.90;;;;;;;;;;5052719;28;20453;-77
2023/09/02 08:16:45;;;;;;;2.87;2.07;;;;;;;;;;5052890;28;20449;-78
2023/09/02 08:19:13;;;;;;;3.27;2.27;;;;;;;;;;5053025;28;20938;-76
2023/09/02 08:21:41;;;;;;;2.53;2.00;;;;;;;;;;5053200;28;20451;-76
2023/09/02 08:24:08;;;;;;;2.13;1.93;;;;;;;;;;5056490;28;20469;-78
2023/09/02 08:26:35;;;;;;;5.20;2.60;;;;;;;;;;5057743;28;20452;-78
2023/09/02 08:29:02;;;;;;;3.40;2.27;;;;;;;;;;5057222;28;20457;-78
2023/09/02 08:31:29;;;;;;;2.70;2.50;;;;;;;;;;5056983;28;20560;-79
2023/09/02 08:33:56;;;;;;;7.50;2.00;;;;;;;;;;5052534;28;20484;-79
2023/09/02 08:36:25;;;;;;;4.13;2.80;;;;;;;;;;5055496;28;20445;-79
2023/09/02 08:38:52;;;;;;;4.53;2.17;;;;;;;;;;5055377;28;20456;-78
2023/09/02 08:41:23;;;;;;;7.37;2.83;;;;;;;;;;5054832;28;20472;-79
2023/09/02 08:43:53;;;;;;;4.77;2.57;;;;;;;;;;5055950;28;20568;-79
2023/09/02 08:46:21;;;;;;;2.90;2.50;;;;;;;;;;5055542;28;20441;-78
2023/09/02 08:48:49;;;;;;;4.30;2.27;;;;;;;;;;5055659;28;20490;-79
2023/09/02 08:51:17;;;;;;;2.60;2.00;;;;;;;;;;5054926;28;20448;-80
2023/09/02 08:53:46;;;;;;;2.60;2.27;;;;;;;;;;5056153;28;20472;-78
2023/09/02 08:56:13;;;;;;;5.50;2.50;;;;;;;;;;5056211;28;20852;-78
2023/09/02 08:58:40;;;;;;;2.77;2.30;;;;;;;;;;5055201;28;20464;-79
2023/09/02 09:01:08;;;;;;;5.27;2.60;;;;;;;;;;5055644;28;20456;-78
2023/09/02 09:03:35;;;;;;;5.53;2.97;;;;;;;;;;5056000;28;20471;-78
2023/09/02 09:06:05;;;;;;;3.23;2.60;;;;;;;;;;5055193;28;20448;-78
2023/09/02 09:08:33;;;;;;;4.97;2.03;;;;;;;;;;5056458;28;20503;-78
2023/09/02 09:11:02;;;;;;;4.30;2.77;;;;;;;;;;5056170;28;20447;-79
2023/09/02 09:13:29;;;;;;;3.27;2.00;;;;;;;;;;5056252;28;20469;-78
2023/09/02 09:15:57;;;;;;;2.13;1.80;;;;;;;;;;5056783;28;20477;-80
2023/09/02 09:18:25;;;;;;;2.37;1.93;;;;;;;;;;5055167;28;20452;-79
2023/09/02 09:20:53;;;;;;;4.10;2.00;;;;;;;;;;5055331;28;20558;-79
2023/09/02 09:23:20;;;;;;;2.13;1.93;;;;;;;;;;5056268;28;20973;-79
2023/09/02 09:25:49;;;;;;;4.63;2.20;;;;;;;;;;5059206;28;20456;-79
2023/09/02 09:28:17;;;;;;;2.27;2.07;;;;;;;;;;5059253;28;20852;-79
2023/09/02 09:30:45;;;;;;;2.20;2.00;;;;;;;;;;5059525;28;20467;-78
2023/09/02 09:33:12;;;;;;;3.50;2.63;;;;;;;;;;5059839;28;20482;-78
2023/09/02 09:35:39;;;;;;;3.07;2.00;;;;;;;;;;5059726;28;20445;-78
2023/09/02 09:38:06;;;;;;;4.37;2.90;;;;;;;;;;5060285;28;20548;-78
2023/09/02 09:40:34;;;;;;;6.03;2.70;;;;;;;;;;5060256;28;20452;-78
2023/09/02 09:43:02;;;;;;;2.40;1.90;;;;;;;;;;5059501;28;20487;-78
2023/09/02 09:45:31;;;;;;;2.60;2.40;;;;;;;;;;5058563;28;20508;-78
2023/09/02 09:47:59;;;;;;;3.77;2.87;;;;;;;;;;5058925;28;20492;-79
2023/09/02 09:50:29;;;;;;;3.30;2.40;;;;;;;;;;5061381;28;20527;-78
2023/09/02 09:53:01;;;;;;;5.93;2.80;;;;;;;;;;5058631;28;20590;-78
2023/09/02 09:55:29;;;;;;;3.33;2.77;;;;;;;;;;5058855;28;20452;-78
2023/09/02 09:57:57;;;;;;;1.87;1.70;;;;;;;;;;5057961;28;20456;-78
2023/09/02 10:00:24;;;;;;;6.27;4.30;;;;;;;;;;5059418;28;20463;-80
2023/09/02 10:02:53;;;;;;;2.97;2.10;;;;;;;;;;5058618;28;20468;-79
2023/09/02 10:05:27;;;;;;;2.40;1.50;;;;;;;;;;5061213;28;20448;-79
2023/09/02 10:07:58;;;;;;;2.30;2.10;;;;;;;;;;5061209;28;20496;-78
2023/09/02 10:10:29;;;;;;;3.03;2.20;;;;;;;;;;5060891;28;20441;-79
2023/09/02 10:12:57;;;;;;;2.20;2.00;;;;;;;;;;5061185;28;20551;-78
2023/09/02 10:15:26;;;;;;;3.00;2.40;;;;;;;;;;5060357;28;20445;-78
2023/09/02 10:17:55;;;;;;;3.53;2.10;;;;;;;;;;5060915;28;20448;-78
2023/09/02 10:20:25;;;;;;;2.20;1.80;;;;;;;;;;5062315;28;20449;-79
2023/09/02 10:22:53;;;;;;;1.97;1.77;;;;;;;;;;5064215;28;20476;-80
2023/09/02 10:25:24;;;;;;;2.60;2.40;;;;;;;;;;5064259;28;20491;-79
2023/09/02 10:28:02;;;;;;;2.90;2.17;;;;;;;;;;5063610;28;20480;-78
2023/09/02 10:30:34;;;;;;;3.50;2.10;;;;;;;;;;5064847;28;20445;-79
2023/09/02 10:33:06;;;;;;;3.67;2.07;;;;;;;;;;5062925;28;20496;-78
2023/09/02 10:35:33;;;;;;;3.17;2.20;;;;;;;;;;5063934;28;20453;-79
2023/09/02 10:38:02;;;;;;;2.97;1.90;;;;;;;;;;5063086;28;20444;-79
2023/09/02 10:40:31;;;;;;;2.47;2.03;;;;;;;;;;5065189;28;20460;-79
2023/09/02 10:42:59;;;;;;;2.97;2.00;;;;;;;;;;5061924;28;20832;-78
2023/09/02 10:45:27;;;;;;;3.70;2.27;;;;;;;;;;5062797;28;20475;-78
2023/09/02 10:47:54;;;;;;;3.80;1.80;;;;;;;;;;5061338;28;20839;-78
2023/09/02 10:50:23;;;;;;;3.07;1.70;;;;;;;;;;5061818;28;20432;-79
2023/09/02 10:52:50;;;;;;;2.10;1.90;;;;;;;;;;5063058;28;20524;-78
2023/09/02 10:55:17;;;;;;;2.43;2.23;;;;;;;;;;5060555;28;20441;-78
2023/09/02 10:57:46;;;;;;;2.80;2.53;;;;;;;;;;5060265;28;20524;-80
2023/09/02 11:00:13;;;;;;;3.20;2.00;;;;;;;;;;5061378;28;20523;-79
2023/09/02 11:02:41;;;;;;;3.83;2.10;;;;;;;;;;5059870;28;20465;-79
2023/09/02 11:05:08;;;;;;;5.03;2.50;;;;;;;;;;5057208;28;20453;-79
2023/09/02 11:07:39;;;;;;;2.33;2.10;;;;;;;;;;5057572;28;20796;-79
2023/09/02 11:10:07;;;;;;;4.70;2.53;;;;;;;;;;5057513;28;20479;-78
2023/09/02 11:12:34;;;;;;;4.07;2.50;;;;;;;;;;5058508;28;20477;-79
2023/09/02 11:15:13;;;;;;;2.30;1.90;;;;;;;;;;5057775;28;20485;-78
2023/09/02 11:17:41;;;;;;;3.03;1.70;;;;;;;;;;5057510;28;20480;-79
2023/09/02 11:20:09;;;;;;;2.33;2.10;;;;;;;;;;5056593;28;20449;-78
2023/09/02 11:22:51;;;;;;;2.53;2.20;;;;;;;;;;5057191;28;20488;-79
2023/09/02 11:25:29;;;;;;;2.80;2.60;;;;;;;;;;5056976;28;20445;-79
2023/09/02 11:27:56;;;;;;;2.93;2.10;;;;;;;;;;5058072;28;20490;-80
2023/09/02 11:30:24;;;;;;;2.03;1.63;;;;;;;;;;5058314;28;20485;-80
2023/09/02 11:32:51;;;;;;;2.70;2.23;;;;;;;;;;5058677;28;20564;-81
2023/09/02 11:35:24;;;;;;;3.53;2.10;;;;;;;;;;5061497;28;20481;-80
2023/09/02 11:37:52;;;;;;;3.27;2.30;;;;;;;;;;5059789;28;20445;-79
2023/09/02 11:40:20;;;;;;;3.47;2.27;;;;;;;;;;5059210;28;20937;-79
2023/09/02 11:42:50;;;;;;;2.40;2.20;;;;;;;;;;5059263;28;20488;-81
2023/09/02 11:45:18;;;;;;;4.40;1.93;;;;;;;;;;5059367;28;20437;-81
2023/09/02 11:47:45;;;;;;;4.50;1.90;;;;;;;;;;5059687;28;20961;-79
2023/09/02 11:50:12;;;;;;;2.93;2.13;;;;;;;;;;5060936;28;20456;-80
2023/09/02 11:52:40;;;;;;;4.83;2.10;;;;;;;;;;5059909;28;20837;-80
2023/09/02 11:55:12;;;;;;;2.17;1.83;;;;;;;;;;5056828;28;20826;-79
2023/09/02 11:57:40;;;;;;;3.37;2.00;;;;;;;;;;5059478;28;20445;-80
2023/09/02 12:00:08;;;;;;;2.70;1.93;;;;;;;;;;5063191;28;21032;-79
2023/09/02 12:02:38;;;;;;;2.67;2.43;;;;;;;;;;5065636;28;20563;-79
2023/09/02 12:05:06;;;;;;;2.60;1.97;;;;;;;;;;5067057;28;20441;-81
2023/09/02 12:07:36;;;;;;;3.33;2.10;;;;;;;;;;5063189;28;20516;-78
2023/09/02 12:10:07;;;;;;;4.73;2.50;;;;;;;;;;5064669;28;20960;-80
2023/09/02 12:12:35;;;;;;;2.73;1.90;;;;;;;;;;5067781;28;20475;-80
2023/09/02 12:15:03;;;;;;;2.80;1.60;;;;;;;;;;5057138;28;20449;-79
2023/09/02 12:17:30;;;;;;;2.70;2.10;;;;;;;;;;5055925;28;20502;-80
2023/09/02 12:19:57;;;;;;;2.17;1.97;;;;;;;;;;5056199;28;20452;-81
2023/09/02 12:22:25;;;;;;;3.03;2.00;;;;;;;;;;5055970;28;20516;-79
2023/09/02 12:24:52;;;;;;;2.33;1.90;;;;;;;;;;5056232;28;20437;-82
2023/09/02 12:27:19;;;;;;;2.50;1.90;;;;;;;;;;5055600;28;20827;-79
2023/09/02 12:29:57;;;;;;;2.40;1.80;;;;;;;;;;5056262;28;20477;-80
2023/09/02 12:32:25;;;;;;;2.53;2.33;;;;;;;;;;5056460;28;20449;-79
2023/09/02 12:34:52;;;;;;;2.87;2.47;;;;;;;;;;5056372;28;20536;-79
2023/09/02 12:37:20;;;;;;;2.53;2.13;;;;;;;;;;5056315;28;20506;-80
2023/09/02 12:39:47;;;;;;;2.30;1.80;;;;;;;;;;5055208;28;20447;-80
2023/09/02 12:42:17;;;;;;;1.93;1.67;;;;;;;;;;5056214;28;20945;-78
2023/09/02 12:44:51;;;;;;;3.90;2.03;;;;;;;;;;5058503;28;20495;-79
2023/09/02 12:47:21;;;;;;;3.90;2.23;;;;;;;;;;5055225;28;20483;-79
2023/09/02 12:49:48;;;;;;;1.90;1.60;;;;;;;;;;5056292;28;20484;-80
2023/09/02 12:52:16;;;;;;;3.80;1.90;;;;;;;;;;5055561;28;20465;-77
2023/09/02 12:54:46;;;;;;;6.47;2.10;;;;;;;;;;5057754;28;20448;-79
2023/09/02 12:57:13;;;;;;;3.33;2.20;;;;;;;;;;5057144;28;20584;-77
2023/09/02 12:59:40;;;;;;;2.50;2.07;;;;;;;;;;5054748;28;20447;-77
2023/09/02 13:02:07;;;;;;;2.20;2.00;;;;;;;;;;5056206;28;20853;-77
2023/09/02 13:04:36;;;;;;;4.13;2.33;;;;;;;;;;5056192;28;20456;-77
2023/09/02 13:07:04;;;;;;;2.57;1.93;;;;;;;;;;5056143;28;20937;-78
2023/09/02 13:09:31;;;;;;;3.73;2.53;;;;;;;;;;5059469;28;20492;-79
2023/09/02 13:11:59;;;;;;;3.10;2.10;;;;;;;;;;5059632;28;20465;-80
2023/09/02 13:14:28;;;;;;;2.50;2.20;;;;;;;;;;5056517;28;20463;-78
2023/09/02 13:16:55;;;;;;;5.00;2.67;;;;;;;;;;5071170;22;20503;-80
2023/09/02 13:19:23;;;;;;;4.97;1.90;;;;;;;;;;5076439;28;20527;-79
2023/09/02 13:21:52;;;;;;;3.80;2.10;;;;;;;;;;5076783;28;20456;-81
2023/09/02 13:24:22;;;;;;;2.10;1.90;;;;;;;;;;5077677;28;20436;-81
2023/09/02 13:26:49;;;;;;;4.73;2.00;;;;;;;;;;5077330;28;20459;-80
2023/09/02 13:29:18;;;;;;;3.70;2.00;;;;;;;;;;5076215;28;20488;-79
2023/09/02 13:31:45;;;;;;;7.63;2.77;;;;;;;;;;5082039;22;20499;-76
2023/09/02 13:34:23;;;;;;;3.43;2.30;;;;;;;;;;5051883;28;20448;-77
2023/09/02 13:36:52;;;;;;;2.30;2.07;;;;;;;;;;5051777;28;20517;-75
2023/09/02 13:39:19;;;;;;;2.37;2.10;;;;;;;;;;5051749;28;20441;-75
2023/09/02 13:41:47;;;;;;;2.40;2.00;;;;;;;;;;5051499;28;20452;-77
2023/09/02 13:44:14;;;;;;;3.23;2.00;;;;;;;;;;5051430;28;20441;-76
2023/09/02 13:46:41;;;;;;;5.13;2.60;;;;;;;;;;5051702;28;20813;-76
2023/09/02 13:49:08;;;;;;;4.50;3.50;;;;;;;;;;5051425;28;20499;-75
2023/09/02 13:51:35;;;;;;;3.10;2.60;;;;;;;;;;5051785;28;20445;-75
2023/09/02 13:54:04;;;;;;;3.40;3.03;;;;;;;;;;5051819;28;20547;-75
2023/09/02 13:56:31;;;;;;;2.70;2.10;;;;;;;;;;5051578;28;20453;-76
2023/09/02 13:59:01;;;;;;;2.33;1.70;;;;;;;;;;5051360;28;20448;-75
2023/09/02 14:01:29;;;;;;;3.10;2.37;;;;;;;;;;5051314;28;20511;-76
2023/09/02 14:03:57;;;;;;;3.97;2.83;;;;;;;;;;5051628;28;20973;-75
2023/09/02 14:06:24;;;;;;;2.90;1.90;;;;;;;;;;5051225;28;20445;-75
2023/09/02 14:08:51;;;;;;;3.70;2.07;;;;;;;;;;5051417;28;21004;-74
2023/09/02 14:11:19;;;;;;;3.30;2.07;;;;;;;;;;5054419;28;20452;-76
2023/09/02 14:13:49;;;;;;;7.33;2.30;;;;;;;;;;5055048;28;20478;-75
2023/09/02 14:16:16;;;;;;;3.53;2.47;;;;;;;;;;5054862;28;20457;-74
2023/09/02 14:18:44;;;;;;;2.90;1.90;;;;;;;;;;5055342;28;20884;-76
2023/09/02 14:21:11;;;;;;;3.77;2.33;;;;;;;;;;5055155;28;20441;-76
2023/09/02 14:23:38;;;;;;;4.30;2.30;;;;;;;;;;5054451;28;20465;-75
2023/09/02 14:26:05;;;;;;;2.60;2.20;;;;;;;;;;5054959;28;20456;-74
2023/09/02 14:28:35;;;;;;;2.50;2.07;;;;;;;;;;5054803;28;20456;-76
2023/09/02 14:31:02;;;;;;;4.97;2.23;;;;;;;;;;5054789;28;20925;-76
2023/09/02 14:33:29;;;;;;;1.97;1.77;;;;;;;;;;5054329;28;20827;-76
2023/09/02 14:35:57;;;;;;;5.40;2.40;;;;;;;;;;5054412;28;20449;-76
2023/09/02 14:38:24;;;;;;;4.63;2.03;;;;;;;;;;5054506;28;20953;-76
2023/09/02 14:40:51;;;;;;;4.73;2.50;;;;;;;;;;5054472;28;20444;-77
2023/09/02 14:43:18;;;;;;;3.60;2.77;;;;;;;;;;5054547;28;20480;-76
2023/09/02 14:45:46;;;;;;;2.60;2.00;;;;;;;;;;5054200;28;20908;-76
2023/09/02 14:48:14;;;;;;;2.73;2.50;;;;;;;;;;5054251;28;20456;-76